createdAt,value
2023-01-03T00:03:05.040Z,100801.80
2023-01-03T00:08:12.437Z,100817.05
2023-01-03T00:13:19.375Z,100828.02
2023-01-03T00:18:29.217Z,100832.09
2023-01-03T00:23:36.143Z,100837.74
2023-01-03T00:28:43.078Z,100852.39
2023-01-03T00:33:50.259Z,100864.46
2023-01-03T00:38:57.239Z,100862.58
2023-01-03T00:44:04.524Z,100868.11
2023-01-03T00:49:12.360Z,100871.24
2023-01-03T00:54:19.298Z,100872.81
2023-01-03T00:59:27.099Z,100881.75
2023-01-03T01:04:35.507Z,100895.81
2023-01-03T01:09:42.749Z,100903.48
2023-01-03T01:14:49.661Z,100911.45
2023-01-03T01:19:59.194Z,100911.15
2023-01-03T01:25:06.979Z,100922.92
2023-01-03T01:30:14.341Z,100928.89
2023-01-03T01:35:21.348Z,100932.98
2023-01-03T01:40:28.837Z,100931.52
2023-01-03T01:45:38.294Z,100918.59
2023-01-03T01:50:54.259Z,100931.86
2023-01-03T01:56:07.454Z,100932.61
2023-01-03T02:01:17.839Z,100937.75
2023-01-03T02:06:26.004Z,100940.71
2023-01-03T02:11:42.032Z,100949.83
2023-01-03T02:17:01.653Z,100955.54
2023-01-03T02:22:25.306Z,100964.81
2023-01-03T02:28:01.997Z,100976.63
2023-01-03T02:33:19.951Z,100986.02
2023-01-03T02:38:35.671Z,101002.15
2023-01-03T02:43:52.391Z,101008.52
2023-01-03T02:49:05.465Z,101010.57
2023-01-03T02:54:16.793Z,101019.64
2023-01-03T02:59:35.250Z,101016.17
2023-01-03T03:04:47.313Z,101017.48
2023-01-03T03:10:11.892Z,101028.07
2023-01-03T03:15:23.322Z,101030.61
2023-01-03T03:20:48.161Z,101033.69
2023-01-03T03:25:59.393Z,101037.45
2023-01-03T03:31:10.497Z,101040.03
2023-01-03T03:36:25.569Z,101044.83
2023-01-03T03:41:58.662Z,101044.35
2023-01-03T03:47:11.539Z,101052.93
2023-01-03T03:52:22.322Z,101057.40
2023-01-03T03:57:34.044Z,101064.27
2023-01-03T04:02:39.868Z,101070.80
2023-01-03T04:07:47.125Z,101073.54
2023-01-03T04:12:54.649Z,101076.48
2023-01-03T04:18:03.254Z,101079.23
2023-01-03T04:23:10.239Z,101084.41
2023-01-03T04:28:17.554Z,101082.23
2023-01-03T04:33:25.084Z,101087.95
2023-01-03T04:38:32.084Z,101099.34
2023-01-03T04:43:56.715Z,101109.01
2023-01-03T04:49:05.165Z,101127.06
2023-01-03T04:54:12.173Z,101130.03
2023-01-03T04:59:19.124Z,101130.73
2023-01-03T05:04:26.176Z,101137.95
2023-01-03T05:09:35.775Z,101139.48
2023-01-03T05:14:42.777Z,101144.10
2023-01-03T05:20:08.050Z,101137.74
2023-01-03T05:25:28.843Z,101144.25
2023-01-03T05:30:35.855Z,101148.17
2023-01-03T05:35:42.800Z,101159.13
2023-01-03T05:40:49.761Z,101166.14
2023-01-03T05:45:56.749Z,101165.47
2023-01-03T05:51:03.760Z,101171.30
2023-01-03T05:56:11.182Z,101178.48
2023-01-03T06:01:18.962Z,101187.73
2023-01-03T06:06:26.010Z,101194.06
2023-01-03T06:11:32.962Z,101198.50
2023-01-03T06:17:06.061Z,101206.52
2023-01-03T06:22:13.259Z,101210.97
2023-01-03T06:27:20.309Z,101216.28
2023-01-03T06:32:27.446Z,101225.68
2023-01-03T06:37:34.368Z,101228.59
2023-01-03T06:42:44.288Z,101239.71
2023-01-03T06:48:09.000Z,101251.69
2023-01-03T06:53:18.295Z,101260.59
2023-01-03T06:58:25.330Z,101265.05
2023-01-03T07:03:32.724Z,101272.93
2023-01-03T07:08:44.230Z,101278.40
2023-01-03T07:14:03.514Z,101283.54
2023-01-03T07:19:12.852Z,101294.33
2023-01-03T07:24:19.968Z,101297.56
2023-01-03T07:29:26.935Z,101305.28
2023-01-03T07:34:33.938Z,101309.55
2023-01-03T07:39:40.884Z,101318.13
2023-01-03T07:44:47.840Z,101320.17
2023-01-03T07:49:54.869Z,101323.27
2023-01-03T07:55:01.900Z,101330.13
2023-01-03T08:00:10.912Z,101333.20
2023-01-03T08:05:19.457Z,101335.08
2023-01-03T08:10:42.857Z,101332.33
2023-01-03T08:15:52.981Z,101338.31
2023-01-03T08:21:00.131Z,101341.91
2023-01-03T08:26:09.518Z,101344.46
2023-01-03T08:31:22.830Z,101350.10
2023-01-03T08:36:34.387Z,101360.38
2023-01-03T08:41:45.050Z,101362.77
2023-01-03T08:46:54.585Z,101367.38
2023-01-03T08:52:01.606Z,101370.27
2023-01-03T08:57:08.535Z,101379.20
2023-01-03T09:02:15.628Z,101382.96
2023-01-03T09:07:22.811Z,101383.98
2023-01-03T09:12:29.813Z,101389.80
2023-01-03T09:17:36.944Z,101397.68
2023-01-03T09:22:44.222Z,101410.70
2023-01-03T09:27:51.258Z,101409.14
2023-01-03T09:32:58.104Z,101410.68
2023-01-03T09:38:05.049Z,101407.76
2023-01-03T09:43:24.684Z,101404.84
2023-01-03T09:48:37.295Z,101408.43
2023-01-03T09:54:02.392Z,101406.70
2023-01-03T09:59:40.750Z,101415.75
2023-01-03T10:05:09.743Z,101414.92
2023-01-03T10:10:24.045Z,101417.83
2023-01-03T10:15:44.938Z,101420.10
2023-01-03T10:20:55.385Z,101421.98
2023-01-03T10:26:02.873Z,101418.89
2023-01-03T10:31:29.164Z,101414.62
2023-01-03T10:36:36.133Z,101412.57
2023-01-03T10:41:47.124Z,101412.39
2023-01-03T10:46:56.391Z,101411.20
2023-01-03T10:52:10.785Z,101404.67
2023-01-03T10:57:43.684Z,101405.00
2023-01-03T11:02:51.673Z,101411.35
2023-01-03T11:08:01.047Z,101408.10
2023-01-03T11:13:23.980Z,101405.36
2023-01-03T11:18:33.666Z,101403.27
2023-01-03T11:23:59.018Z,101402.59
2023-01-03T11:29:44.344Z,101406.73
2023-01-03T11:35:22.972Z,101402.46
2023-01-03T11:40:44.435Z,101396.23
2023-01-03T11:46:10.378Z,101391.77
2023-01-03T11:51:24.308Z,101389.22
2023-01-03T11:56:36.038Z,101392.33
2023-01-03T12:01:51.879Z,101395.10
2023-01-03T12:13:05.370Z,101395.45
2023-01-03T12:18:23.424Z,101399.40
2023-01-03T12:23:39.241Z,101395.27
2023-01-03T12:28:53.635Z,101385.13
2023-01-03T12:34:10.314Z,101386.13
2023-01-03T12:39:34.408Z,101386.27
2023-01-03T12:44:44.688Z,101388.48
2023-01-03T12:49:58.417Z,101388.84
2023-01-03T12:55:14.873Z,101383.03
2023-01-03T13:00:32.485Z,101375.64
2023-01-03T13:05:47.725Z,101371.23
2023-01-03T13:10:59.067Z,101375.56
2023-01-03T13:16:33.407Z,101380.23
2023-01-03T13:22:06.213Z,101382.48
2023-01-03T13:27:37.625Z,101377.19
2023-01-03T13:32:53.481Z,101378.77
2023-01-03T13:38:12.830Z,101374.31
2023-01-03T13:43:29.942Z,101376.21
2023-01-03T13:48:56.684Z,101380.66
2023-01-03T13:54:07.357Z,101384.07
2023-01-03T13:59:27.166Z,101388.52
2023-01-03T14:05:00.793Z,101394.84
2023-01-03T14:10:22.715Z,101406.48
2023-01-03T14:15:28.535Z,101410.24
2023-01-03T14:20:38.613Z,101423.95
2023-01-03T14:25:46.599Z,101431.45
2023-01-03T14:31:03.546Z,101432.63
2023-01-03T14:36:14.778Z,101431.52
2023-01-03T14:41:35.251Z,101432.96
2023-01-03T14:46:53.272Z,101430.84
2023-01-03T14:52:09.847Z,101428.21
2023-01-03T14:57:22.471Z,101431.05
2023-01-03T15:02:37.240Z,101431.84
2023-01-03T15:07:45.084Z,101436.02
2023-01-03T15:13:04.566Z,101448.39
2023-01-03T15:18:23.124Z,101458.05
2023-01-03T15:23:41.645Z,101460.00
2023-01-03T15:28:56.383Z,101464.34
2023-01-03T15:34:13.197Z,101467.31
2023-01-03T15:39:24.011Z,101470.91
2023-01-03T15:44:33.544Z,101481.66
2023-01-03T15:49:43.806Z,101485.05
2023-01-03T15:54:51.224Z,101490.01
2023-01-03T16:00:02.477Z,101494.91
2023-01-03T16:05:23.679Z,101501.52
2023-01-03T16:10:31.558Z,101508.70
2023-01-03T16:15:43.830Z,101513.86
2023-01-03T16:20:51.697Z,101514.23
2023-01-03T16:25:59.423Z,101519.34
2023-01-03T16:31:15.314Z,101524.73
2023-01-03T16:36:31.806Z,101525.61
2023-01-03T16:41:38.799Z,101528.44
2023-01-03T16:46:46.489Z,101526.50
2023-01-03T16:51:57.528Z,101526.42
2023-01-03T16:57:05.180Z,101529.67
2023-01-03T17:02:12.723Z,101529.19
2023-01-03T17:07:25.148Z,101526.93
2023-01-03T17:12:30.582Z,101525.93
2023-01-03T17:17:37.561Z,101529.20
2023-01-03T17:22:58.749Z,101530.64
2023-01-03T17:28:14.028Z,101531.48
2023-01-03T17:33:33.618Z,101539.80
2023-01-03T17:38:41.293Z,101540.16
2023-01-03T17:44:03.361Z,101547.34
2023-01-03T17:49:28.224Z,101553.34
2023-01-03T17:54:38.116Z,101555.95
2023-01-03T17:59:45.303Z,101561.02
2023-01-03T18:10:28.397Z,101574.34
2023-01-03T18:15:35.439Z,101579.87
2023-01-03T18:20:42.723Z,101578.77
2023-01-03T18:25:49.970Z,101573.34
2023-01-03T18:30:58.156Z,101567.98
2023-01-03T18:36:08.158Z,101573.48
2023-01-03T18:41:28.489Z,101571.68
2023-01-03T18:46:35.748Z,101573.15
2023-01-03T18:51:49.283Z,101577.21
2023-01-03T18:56:56.500Z,101580.91
2023-01-03T19:02:04.034Z,101582.14
2023-01-03T19:07:18.701Z,101581.38
2023-01-03T19:12:26.407Z,101585.68
2023-01-03T19:17:33.618Z,101582.75
2023-01-03T19:22:42.118Z,101578.83
2023-01-03T19:27:50.262Z,101581.06
2023-01-03T19:32:59.253Z,101582.63
2023-01-03T19:38:06.252Z,101584.00
2023-01-03T19:43:21.862Z,101587.92
2023-01-03T19:48:32.450Z,101592.35
2023-01-03T19:53:39.639Z,101593.07
2023-01-03T19:58:46.777Z,101590.59
2023-01-03T20:03:53.868Z,101600.77
2023-01-03T20:09:02.725Z,101602.80
2023-01-03T20:14:20.233Z,101595.56
2023-01-03T20:19:27.896Z,101593.08
2023-01-03T20:24:36.458Z,101587.10
2023-01-03T20:29:44.192Z,101588.11
2023-01-03T20:34:51.533Z,101587.47
2023-01-03T20:39:59.479Z,101584.31
2023-01-03T20:45:08.662Z,101588.06
2023-01-03T20:50:20.077Z,101581.95
2023-01-03T20:55:28.232Z,101579.47
2023-01-03T21:00:43.385Z,101577.69
2023-01-03T21:06:19.499Z,101585.93
2023-01-03T21:11:30.726Z,101591.56
2023-01-03T21:16:42.232Z,101597.04
2023-01-03T21:22:05.224Z,101590.21
2023-01-03T21:27:20.457Z,101586.38
2023-01-03T21:32:27.591Z,101585.33
2023-01-03T21:37:42.093Z,101584.11
2023-01-03T21:43:06.684Z,101580.66
2023-01-03T21:48:15.379Z,101584.86
2023-01-03T21:53:24.567Z,101586.93
2023-01-03T21:58:32.688Z,101580.94
2023-01-03T22:03:57.981Z,101590.55
2023-01-03T22:09:07.362Z,101591.95
2023-01-03T22:14:22.076Z,101595.20
2023-01-03T22:19:29.083Z,101590.96
2023-01-03T22:24:39.559Z,101592.54
2023-01-03T22:29:46.505Z,101595.05
2023-01-03T22:34:53.433Z,101595.37
2023-01-03T22:40:00.399Z,101591.81
2023-01-03T22:45:10.310Z,101591.02
2023-01-03T22:50:17.333Z,101588.45
2023-01-03T22:55:28.329Z,101591.42
2023-01-03T23:00:39.591Z,101592.89
2023-01-03T23:05:46.563Z,101591.35
2023-01-03T23:11:13.448Z,101590.39
2023-01-03T23:16:20.505Z,101586.16
2023-01-03T23:21:27.580Z,101589.29
2023-01-03T23:26:34.597Z,101580.63
2023-01-03T23:31:41.444Z,101576.30
2023-01-03T23:36:48.406Z,101575.49
2023-01-03T23:41:55.362Z,101576.15
2023-01-03T23:47:07.646Z,101572.88
2023-01-03T23:52:18.284Z,101567.81
2023-01-03T23:57:25.189Z,101568.55
